createdAt,value
2023-03-05T00:00:39.313Z,32.13
2023-03-05T00:03:06.020Z,33.97
2023-03-05T00:05:34.430Z,31.67
2023-03-05T00:08:01.421Z,37.88
2023-03-05T00:10:28.158Z,35.63
2023-03-05T00:12:54.795Z,33.88
2023-03-05T00:15:21.439Z,36.33
2023-03-05T00:17:48.131Z,35.45
2023-03-05T00:20:14.961Z,36.33
2023-03-05T00:22:41.724Z,32.30
2023-03-05T00:25:08.861Z,35.03
2023-03-05T00:27:36.688Z,35.03
2023-03-05T00:30:03.464Z,37.70
2023-03-05T00:32:30.244Z,35.78
2023-03-05T00:34:59.907Z,36.63
2023-03-05T00:37:26.712Z,35.42
2023-03-05T00:39:53.380Z,32.17
2023-03-05T00:42:21.175Z,31.63
2023-03-05T00:44:49.841Z,32.15
2023-03-05T00:47:19.247Z,31.58
2023-03-05T00:49:45.966Z,33.05
2023-03-05T00:52:12.621Z,30.85
2023-03-05T00:54:42.416Z,37.13
2023-03-05T00:57:09.072Z,33.03
2023-03-05T00:59:35.787Z,32.25
2023-03-05T01:02:02.445Z,32.75
2023-03-05T01:04:29.146Z,33.03
2023-03-05T01:06:55.824Z,30.33
2023-03-05T01:09:25.285Z,33.47
2023-03-05T01:11:52.524Z,33.70
2023-03-05T01:14:19.877Z,36.47
2023-03-05T01:16:46.988Z,28.38
2023-03-05T01:19:14.840Z,29.88
2023-03-05T01:21:41.697Z,36.92
2023-03-05T01:24:08.927Z,37.22
2023-03-05T01:26:35.635Z,35.55
2023-03-05T01:29:02.554Z,34.72
2023-03-05T01:31:29.376Z,35.20
2023-03-05T01:33:56.119Z,31.60
2023-03-05T01:36:25.096Z,31.33
2023-03-05T01:38:52.188Z,39.08
2023-03-05T01:41:19.629Z,43.05
2023-03-05T01:43:46.916Z,39.70
2023-03-05T01:46:13.617Z,37.28
2023-03-05T01:48:41.253Z,35.45
2023-03-05T01:51:07.969Z,39.03
2023-03-05T01:53:34.750Z,36.67
2023-03-05T01:56:01.462Z,37.95
2023-03-05T01:58:28.156Z,43.85
2023-03-05T02:00:54.922Z,38.65
2023-03-05T02:03:22.861Z,38.15
2023-03-05T02:05:49.567Z,33.97
2023-03-05T02:08:18.623Z,33.53
2023-03-05T02:10:53.063Z,38.13
2023-03-05T02:13:23.315Z,38.58
2023-03-05T02:15:50.563Z,31.83
2023-03-05T02:18:18.188Z,35.03
2023-03-05T02:20:57.153Z,34.15
2023-03-05T02:23:33.957Z,36.35
2023-03-05T02:26:00.741Z,37.90
2023-03-05T02:28:51.115Z,34.33
2023-03-05T02:31:20.553Z,36.00
2023-03-05T02:33:47.478Z,36.92
2023-03-05T02:36:14.396Z,42.13
2023-03-05T02:38:41.767Z,41.17
2023-03-05T02:41:09.116Z,36.20
2023-03-05T02:43:36.115Z,39.88
2023-03-05T02:46:02.854Z,34.88
2023-03-05T02:48:29.575Z,35.38
2023-03-05T02:50:56.232Z,36.20
2023-03-05T02:53:23.870Z,34.85
2023-03-05T02:55:50.706Z,37.25
2023-03-05T02:58:17.665Z,37.25
2023-03-05T03:00:46.793Z,38.60
2023-03-05T03:03:13.868Z,35.97
2023-03-05T03:05:40.877Z,40.13
2023-03-05T03:08:07.836Z,37.45
2023-03-05T03:10:34.579Z,38.35
2023-03-05T03:13:01.322Z,40.13
2023-03-05T03:15:28.068Z,42.03
2023-03-05T03:17:55.318Z,45.45
2023-03-05T03:20:22.310Z,35.15
2023-03-05T03:22:52.178Z,31.98
2023-03-05T03:25:20.930Z,38.90
2023-03-05T03:27:47.714Z,35.13
2023-03-05T03:30:14.772Z,37.83
2023-03-05T03:32:41.539Z,36.55
2023-03-05T03:35:09.008Z,43.90
2023-03-05T03:37:35.719Z,37.72
2023-03-05T03:40:02.580Z,38.17
2023-03-05T03:42:29.319Z,42.47
2023-03-05T03:44:56.081Z,40.03
2023-03-05T03:47:22.790Z,44.72
2023-03-05T03:49:49.474Z,37.28
2023-03-05T03:52:16.169Z,39.97
2023-03-05T03:54:42.915Z,36.63
2023-03-05T03:57:09.664Z,40.75
2023-03-05T03:59:36.503Z,36.85
2023-03-05T04:02:03.942Z,34.45
2023-03-05T04:04:30.732Z,41.17
2023-03-05T04:06:57.634Z,39.88
2023-03-05T04:09:24.420Z,38.60
2023-03-05T04:11:51.169Z,37.92
2023-03-05T04:14:18.015Z,39.10
2023-03-05T04:16:44.687Z,38.63
2023-03-05T04:19:11.455Z,42.70
2023-03-05T04:21:38.258Z,39.67
2023-03-05T04:24:05.289Z,41.20
2023-03-05T04:26:31.958Z,36.72
2023-03-05T04:28:58.632Z,33.10
2023-03-05T04:31:25.297Z,39.58
2023-03-05T04:33:52.042Z,36.40
2023-03-05T04:36:20.888Z,33.72
2023-03-05T04:38:47.791Z,28.25
2023-03-05T04:41:14.528Z,34.17
2023-03-05T04:43:41.305Z,30.38
2023-03-05T04:46:08.149Z,25.15
2023-03-05T04:48:34.859Z,34.70
2023-03-05T04:51:01.538Z,31.98
2023-03-05T04:53:28.316Z,26.90
2023-03-05T04:55:55.633Z,31.17
2023-03-05T04:58:22.999Z,27.08
2023-03-05T05:01:01.587Z,26.90
2023-03-05T05:03:36.635Z,25.58
2023-03-05T05:06:04.097Z,23.05
2023-03-05T05:08:30.776Z,29.83
2023-03-05T05:11:01.164Z,28.08
2023-03-05T05:13:31.424Z,30.10
2023-03-05T05:15:59.397Z,30.75
2023-03-05T05:18:26.490Z,29.85
2023-03-05T05:20:53.589Z,24.95
2023-03-05T05:23:20.360Z,27.88
2023-03-05T05:25:47.086Z,23.67
2023-03-05T05:28:18.031Z,22.30
2023-03-05T05:30:46.960Z,29.20
2023-03-05T05:33:13.687Z,25.55
2023-03-05T05:35:40.913Z,25.50
2023-03-05T05:38:07.716Z,26.80
2023-03-05T05:40:34.458Z,27.92
2023-03-05T05:43:02.491Z,25.38
2023-03-05T05:45:29.323Z,25.90
2023-03-05T05:47:56.188Z,30.42
2023-03-05T05:50:22.888Z,27.95
2023-03-05T05:52:51.519Z,27.67
2023-03-05T05:55:20.342Z,23.98
2023-03-05T05:57:47.205Z,27.92
2023-03-05T06:00:14.987Z,26.13
2023-03-05T06:02:42.679Z,20.77
2023-03-05T06:05:12.141Z,30.05
2023-03-05T06:07:39.002Z,27.70
2023-03-05T06:10:06.377Z,26.45
2023-03-05T06:12:35.317Z,27.17
2023-03-05T06:15:02.067Z,23.27
2023-03-05T06:17:30.615Z,26.73
2023-03-05T06:19:58.455Z,23.13
2023-03-05T06:22:25.369Z,25.85
2023-03-05T06:24:52.028Z,22.80
2023-03-05T06:27:18.796Z,25.33
2023-03-05T06:29:45.496Z,24.38
2023-03-05T06:32:12.269Z,21.13
2023-03-05T06:34:39.043Z,23.95
2023-03-05T06:37:05.776Z,26.63
2023-03-05T06:39:32.485Z,24.67
2023-03-05T06:41:59.543Z,22.88
2023-03-05T06:44:28.469Z,25.67
2023-03-05T06:46:55.164Z,26.98
2023-03-05T06:49:23.002Z,25.83
2023-03-05T06:51:54.846Z,22.90
2023-03-05T06:54:21.584Z,23.98
2023-03-05T06:56:48.272Z,27.05
2023-03-05T06:59:16.148Z,25.67
2023-03-05T07:01:43.635Z,25.17
2023-03-05T07:04:11.915Z,26.95
2023-03-05T07:06:38.875Z,22.50
2023-03-05T07:09:06.971Z,25.23
2023-03-05T07:11:34.406Z,27.98
2023-03-05T07:14:01.450Z,26.52
2023-03-05T07:16:30.180Z,23.27
2023-03-05T07:18:57.979Z,28.17
2023-03-05T07:21:27.188Z,25.23
2023-03-05T07:23:54.976Z,23.45
2023-03-05T07:26:22.207Z,25.13
2023-03-05T07:28:48.885Z,26.30
2023-03-05T07:31:21.372Z,25.80
2023-03-05T07:33:49.106Z,24.15
2023-03-05T07:36:16.468Z,28.83
2023-03-05T07:38:43.292Z,30.15
2023-03-05T07:41:19.842Z,28.98
2023-03-05T07:43:47.777Z,27.30
2023-03-05T07:46:16.508Z,20.42
2023-03-05T07:48:43.420Z,25.48
2023-03-05T07:51:16.054Z,29.65
2023-03-05T07:53:43.544Z,26.52
2023-03-05T07:56:10.728Z,26.75
2023-03-05T07:58:37.554Z,24.90
2023-03-05T08:01:04.622Z,22.77
2023-03-05T08:03:31.355Z,23.92
2023-03-05T08:05:58.138Z,29.70
2023-03-05T08:08:24.940Z,23.10
2023-03-05T08:10:52.688Z,25.13
2023-03-05T08:13:20.499Z,25.42
2023-03-05T08:15:47.263Z,26.50
2023-03-05T08:18:15.694Z,25.50
2023-03-05T08:20:49.492Z,23.55
2023-03-05T08:23:16.291Z,28.02
2023-03-05T08:25:43.112Z,30.90
2023-03-05T08:28:10.872Z,28.02
2023-03-05T08:30:37.639Z,24.17
2023-03-05T08:33:04.545Z,24.70
2023-03-05T08:35:31.464Z,24.05
2023-03-05T08:37:58.358Z,29.20
2023-03-05T08:40:25.183Z,23.92
2023-03-05T08:42:52.264Z,21.40
2023-03-05T08:45:22.311Z,26.10
2023-03-05T08:47:50.220Z,27.15
2023-03-05T08:50:18.184Z,25.15
2023-03-05T08:52:44.978Z,21.42
2023-03-05T08:55:13.104Z,25.52
2023-03-05T08:57:39.950Z,27.05
2023-03-05T09:00:07.650Z,24.10
2023-03-05T09:02:35.577Z,24.15
2023-03-05T09:05:02.881Z,24.77
2023-03-05T09:07:31.724Z,24.98
2023-03-05T09:10:10.483Z,22.20
2023-03-05T09:12:38.284Z,28.88
2023-03-05T09:15:09.286Z,24.13
2023-03-05T09:17:36.751Z,22.50
2023-03-05T09:20:04.657Z,22.77
2023-03-05T09:22:31.476Z,28.13
2023-03-05T09:24:58.359Z,24.90
2023-03-05T09:27:25.295Z,27.27
2023-03-05T09:29:53.363Z,23.70
2023-03-05T09:32:20.083Z,22.77
2023-03-05T09:34:46.810Z,27.52
2023-03-05T09:37:14.855Z,25.60
2023-03-05T09:39:41.801Z,24.15
2023-03-05T09:42:41.672Z,28.20
2023-03-05T09:45:27.887Z,23.85
2023-03-05T09:48:10.510Z,27.08
2023-03-05T09:50:43.091Z,25.10
2023-03-05T09:53:18.656Z,23.17
2023-03-05T09:55:55.563Z,23.15
2023-03-05T09:58:56.241Z,26.63
2023-03-05T10:01:49.680Z,23.83
2023-03-05T10:04:25.847Z,26.40
2023-03-05T10:07:00.298Z,25.98
2023-03-05T10:09:45.488Z,22.83
2023-03-05T10:12:15.094Z,27.27
2023-03-05T10:14:41.819Z,26.17
2023-03-05T10:17:30.261Z,23.42
2023-03-05T10:20:01.906Z,23.70
2023-03-05T10:22:30.038Z,22.85
2023-03-05T10:25:34.144Z,22.13
2023-03-05T10:28:18.049Z,24.95
2023-03-05T10:31:21.706Z,27.58
2023-03-05T10:34:00.547Z,22.15
2023-03-05T10:37:12.491Z,21.50
2023-03-05T10:40:10.061Z,24.02
2023-03-05T10:42:45.825Z,24.35
2023-03-05T10:45:17.762Z,25.73
2023-03-05T10:47:54.557Z,21.83
2023-03-05T10:50:27.114Z,22.77
2023-03-05T10:53:14.176Z,23.83
2023-03-05T10:55:41.662Z,22.60
2023-03-05T10:58:16.397Z,21.63
2023-03-05T11:01:24.611Z,25.88
2023-03-05T11:03:56.280Z,23.85
2023-03-05T11:06:45.830Z,24.58
2023-03-05T11:09:15.665Z,25.25
2023-03-05T11:11:42.637Z,26.52
2023-03-05T11:14:30.099Z,25.35
2023-03-05T11:16:57.256Z,25.88
2023-03-05T11:19:39.836Z,25.70
2023-03-05T11:22:20.664Z,26.55
2023-03-05T11:25:15.890Z,33.53
2023-03-05T11:27:55.947Z,28.00
2023-03-05T11:30:27.084Z,30.13
2023-03-05T11:33:19.483Z,25.65
2023-03-05T11:35:47.253Z,24.88
2023-03-05T11:38:18.942Z,24.15
2023-03-05T11:40:45.713Z,24.42
2023-03-05T11:43:18.237Z,26.95
2023-03-05T11:45:45.094Z,27.98
2023-03-05T11:48:25.781Z,25.95
2023-03-05T11:50:55.266Z,26.02
2023-03-05T11:53:37.082Z,27.58
2023-03-05T11:56:36.821Z,22.38
2023-03-05T11:59:12.599Z,22.63
2023-03-05T12:01:48.058Z,22.92
2023-03-05T12:04:15.762Z,24.85
2023-03-05T12:06:48.374Z,19.25
2023-03-05T12:09:15.017Z,21.42
2023-03-05T12:11:42.210Z,18.67
2023-03-05T12:14:25.758Z,18.88
2023-03-05T12:16:58.769Z,18.65
2023-03-05T12:19:48.681Z,20.55
2023-03-05T12:22:23.507Z,20.92
2023-03-05T12:24:50.650Z,26.40
2023-03-05T12:27:33.370Z,21.02
2023-03-05T12:30:03.035Z,20.88
2023-03-05T12:32:31.433Z,22.83
2023-03-05T12:35:27.901Z,23.02
2023-03-05T12:37:58.625Z,23.27
2023-03-05T12:40:33.673Z,23.85
2023-03-05T12:43:00.386Z,21.25
2023-03-05T12:45:40.048Z,27.95
2023-03-05T12:48:12.351Z,26.00
2023-03-05T12:50:39.063Z,24.38
2023-03-05T12:53:08.777Z,24.15
2023-03-05T12:55:47.480Z,24.20
2023-03-05T12:59:09.842Z,21.13
2023-03-05T13:01:44.593Z,22.10
2023-03-05T13:04:19.878Z,21.23
2023-03-05T13:06:46.652Z,23.60
2023-03-05T13:09:25.002Z,22.40
2023-03-05T13:11:52.842Z,26.75
2023-03-05T13:14:33.434Z,20.63
2023-03-05T13:17:00.466Z,21.52
2023-03-05T13:19:27.667Z,21.40
2023-03-05T13:22:01.077Z,23.17
2023-03-05T13:24:29.341Z,21.58
2023-03-05T13:26:56.271Z,26.75
2023-03-05T13:29:26.402Z,24.17
2023-03-05T13:32:02.060Z,23.45
2023-03-05T13:34:47.033Z,22.00
2023-03-05T13:37:22.104Z,20.73
2023-03-05T13:39:52.694Z,23.20
2023-03-05T13:42:28.644Z,20.55
2023-03-05T13:44:57.162Z,22.27
2023-03-05T13:47:25.634Z,25.63
2023-03-05T13:50:07.533Z,23.25
2023-03-05T13:52:36.659Z,19.95
2023-03-05T13:55:05.402Z,19.83
2023-03-05T13:57:35.994Z,26.38
2023-03-05T14:00:04.124Z,22.73
2023-03-05T14:02:33.132Z,21.15
2023-03-05T14:05:00.763Z,24.70
2023-03-05T14:07:36.329Z,16.38
2023-03-05T14:10:04.477Z,19.05
2023-03-05T14:12:42.676Z,20.45
2023-03-05T14:15:32.258Z,21.88
2023-03-05T14:18:12.028Z,23.70
2023-03-05T14:21:07.896Z,16.50
2023-03-05T14:23:47.770Z,20.85
2023-03-05T14:26:28.604Z,20.35
2023-03-05T14:29:11.052Z,17.77
2023-03-05T14:32:07.713Z,19.27
2023-03-05T14:34:40.538Z,18.90
2023-03-05T14:37:42.343Z,22.13
2023-03-05T14:40:12.566Z,20.48
2023-03-05T14:43:02.424Z,26.67
2023-03-05T14:45:40.880Z,18.33
2023-03-05T14:48:08.316Z,21.23
2023-03-05T14:50:54.701Z,22.60
2023-03-05T14:53:25.009Z,17.95
2023-03-05T14:55:56.769Z,19.63
2023-03-05T14:58:26.238Z,18.05
2023-03-05T15:00:53.997Z,17.90
2023-03-05T15:03:21.071Z,17.77
2023-03-05T15:05:49.533Z,23.17
2023-03-05T15:08:20.728Z,21.10
2023-03-05T15:10:47.613Z,21.02
2023-03-05T15:13:16.265Z,21.15
2023-03-05T15:15:43.754Z,23.55
2023-03-05T15:18:12.901Z,22.45
2023-03-05T15:20:40.779Z,21.23
2023-03-05T15:23:07.549Z,23.92
2023-03-05T15:25:34.295Z,20.38
2023-03-05T15:28:01.093Z,22.73
2023-03-05T15:30:31.193Z,24.23
2023-03-05T15:32:59.092Z,27.40
2023-03-05T15:35:26.109Z,22.40
2023-03-05T15:37:53.002Z,19.85
2023-03-05T15:40:21.151Z,21.35
2023-03-05T15:42:48.448Z,23.50
2023-03-05T15:45:15.570Z,21.25
2023-03-05T15:47:42.396Z,23.27
2023-03-05T15:50:09.936Z,26.00
2023-03-05T15:52:36.715Z,31.33
2023-03-05T15:55:05.961Z,24.55
2023-03-05T15:57:35.468Z,19.85
2023-03-05T16:00:02.216Z,22.95
2023-03-05T16:02:29.473Z,23.63
2023-03-05T16:04:56.426Z,21.35
2023-03-05T16:07:24.037Z,27.77
2023-03-05T16:09:51.362Z,24.77
2023-03-05T16:12:31.705Z,22.88
2023-03-05T16:14:58.432Z,19.63
2023-03-05T16:17:26.158Z,21.98
2023-03-05T16:19:54.209Z,20.45
2023-03-05T16:22:21.056Z,20.63
2023-03-05T16:24:47.866Z,22.08
2023-03-05T16:27:15.061Z,19.80
2023-03-05T16:29:41.855Z,21.58
2023-03-05T16:32:08.716Z,21.08
2023-03-05T16:34:35.737Z,19.30
2023-03-05T16:37:04.758Z,22.73
2023-03-05T16:39:31.519Z,23.85
2023-03-05T16:41:58.429Z,24.35
2023-03-05T16:44:25.141Z,20.00
2023-03-05T16:46:54.041Z,24.55
2023-03-05T16:49:21.988Z,22.67
2023-03-05T16:51:49.025Z,23.83
2023-03-05T16:54:15.720Z,28.55
2023-03-05T16:56:42.486Z,27.30
2023-03-05T16:59:09.330Z,25.77
2023-03-05T17:01:36.245Z,25.75
2023-03-05T17:04:03.816Z,29.27
2023-03-05T17:06:31.566Z,24.08
2023-03-05T17:08:58.703Z,30.05
2023-03-05T17:11:28.198Z,27.92
2023-03-05T17:13:54.966Z,26.95
2023-03-05T17:16:21.919Z,30.80
2023-03-05T17:18:48.827Z,28.45
2023-03-05T17:21:15.926Z,27.02
2023-03-05T17:23:42.593Z,30.42
2023-03-05T17:26:12.507Z,27.40
2023-03-05T17:28:39.810Z,29.50
2023-03-05T17:31:06.759Z,29.80
2023-03-05T17:33:34.656Z,29.10
2023-03-05T17:36:01.680Z,28.77
2023-03-05T17:38:31.979Z,23.00
2023-03-05T17:40:59.268Z,29.73
2023-03-05T17:43:28.277Z,28.25
2023-03-05T17:46:00.878Z,30.25
2023-03-05T17:48:28.428Z,27.20
2023-03-05T17:50:56.961Z,26.42
2023-03-05T17:53:23.809Z,27.42
2023-03-05T17:55:50.891Z,30.67
2023-03-05T17:58:18.391Z,32.88
2023-03-05T18:00:45.301Z,26.10
2023-03-05T18:03:12.086Z,31.88
2023-03-05T18:05:41.237Z,29.00
2023-03-05T18:08:08.073Z,30.20
2023-03-05T18:10:34.911Z,29.20
2023-03-05T18:13:03.101Z,30.10
2023-03-05T18:15:31.169Z,33.30
2023-03-05T18:18:00.158Z,32.47
2023-03-05T18:20:33.699Z,33.50
2023-03-05T18:23:01.435Z,26.20
2023-03-05T18:25:31.519Z,28.50
2023-03-05T18:27:59.755Z,24.95
2023-03-05T18:30:26.769Z,26.65
2023-03-05T18:32:53.706Z,26.98
2023-03-05T18:35:20.391Z,25.50
2023-03-05T18:37:48.111Z,31.60
2023-03-05T18:40:19.202Z,24.73
2023-03-05T18:42:47.392Z,24.85
2023-03-05T18:45:15.545Z,25.83
2023-03-05T18:47:42.613Z,21.42
2023-03-05T18:50:15.030Z,28.02
2023-03-05T18:52:42.863Z,22.30
2023-03-05T18:55:18.778Z,26.27
2023-03-05T18:57:49.398Z,27.13
2023-03-05T19:00:24.336Z,31.48
2023-03-05T19:02:51.313Z,30.08
2023-03-05T19:05:18.326Z,32.42
2023-03-05T19:07:45.881Z,29.70
2023-03-05T19:10:13.831Z,37.50
2023-03-05T19:12:53.403Z,37.38
2023-03-05T19:15:26.394Z,39.53
2023-03-05T19:17:54.968Z,35.67
2023-03-05T19:20:21.697Z,28.42
2023-03-05T19:22:50.916Z,25.95
2023-03-05T19:25:18.330Z,26.17
2023-03-05T19:27:45.020Z,26.48
2023-03-05T19:30:12.824Z,35.10
2023-03-05T19:32:39.603Z,36.85
2023-03-05T19:35:06.749Z,43.38
2023-03-05T19:37:33.529Z,38.30
2023-03-05T19:40:00.249Z,30.45
2023-03-05T19:42:27.363Z,34.92
2023-03-05T19:44:54.239Z,32.95
2023-03-05T19:47:20.987Z,32.25
2023-03-05T19:49:47.706Z,32.45
2023-03-05T19:52:14.388Z,28.88
2023-03-05T19:54:41.187Z,34.38
2023-03-05T19:57:07.987Z,34.63
2023-03-05T19:59:34.646Z,36.08
2023-03-05T20:02:01.532Z,33.20
2023-03-05T20:04:28.400Z,34.88
2023-03-05T20:06:55.507Z,36.70
2023-03-05T20:09:22.229Z,33.13
2023-03-05T20:11:49.056Z,33.63
2023-03-05T20:14:15.829Z,37.25
2023-03-05T20:16:43.453Z,37.97
2023-03-05T20:19:16.265Z,39.00
2023-03-05T20:21:43.379Z,36.05
2023-03-05T20:24:15.479Z,34.22
2023-03-05T20:26:43.027Z,36.55
2023-03-05T20:29:10.027Z,38.58
2023-03-05T20:31:37.370Z,33.67
2023-03-05T20:34:06.520Z,32.30
2023-03-05T20:36:34.805Z,36.40
2023-03-05T20:39:03.211Z,40.28
2023-03-05T20:41:30.410Z,32.40
2023-03-05T20:43:57.131Z,34.85
2023-03-05T20:46:31.844Z,30.35
2023-03-05T20:49:00.921Z,27.67
2023-03-05T20:51:34.037Z,30.88
2023-03-05T20:56:33.024Z,30.80
2023-03-05T20:59:02.920Z,30.25
2023-03-05T21:01:30.239Z,31.40
2023-03-05T21:03:59.953Z,36.92
2023-03-05T21:06:34.212Z,30.58
2023-03-05T21:09:01.356Z,28.23
2023-03-05T21:11:28.375Z,27.50
2023-03-05T21:13:55.235Z,30.48
2023-03-05T21:16:24.268Z,26.60
2023-03-05T21:18:52.130Z,25.33
2023-03-05T21:21:20.040Z,24.63
2023-03-05T21:23:47.288Z,25.08
2023-03-05T21:26:14.464Z,24.50
2023-03-05T21:31:48.164Z,27.05
2023-03-05T21:34:28.294Z,26.02
2023-03-05T21:36:55.252Z,31.27
2023-03-05T21:39:21.923Z,25.98
2023-03-05T21:41:48.682Z,23.13
2023-03-05T21:44:17.774Z,27.55
2023-03-05T21:46:44.586Z,26.55
2023-03-05T21:49:11.407Z,25.35
2023-03-05T21:51:49.586Z,28.23
2023-03-05T21:54:16.262Z,26.70
2023-03-05T21:56:43.756Z,23.90
2023-03-05T21:59:10.466Z,25.08
2023-03-05T22:01:37.142Z,28.25
2023-03-05T22:04:04.127Z,23.35
2023-03-05T22:06:31.048Z,27.70
2023-03-05T22:08:57.834Z,29.58
2023-03-05T22:11:24.606Z,26.27
2023-03-05T22:13:51.373Z,27.23
2023-03-05T22:16:25.880Z,28.20
2023-03-05T22:18:53.279Z,26.92
2023-03-05T22:21:27.076Z,26.50
2023-03-05T22:23:57.054Z,26.25
2023-03-05T22:26:34.501Z,26.30
2023-03-05T22:29:01.779Z,24.23
2023-03-05T22:31:28.602Z,23.73
2023-03-05T22:33:55.320Z,23.35
2023-03-05T22:36:22.248Z,23.15
2023-03-05T22:38:50.059Z,20.83
2023-03-05T22:41:19.956Z,21.40
2023-03-05T22:43:47.739Z,23.80
2023-03-05T22:46:23.363Z,22.63
2023-03-05T22:48:50.169Z,22.63
2023-03-05T22:51:17.392Z,23.55
2023-03-05T22:53:45.175Z,24.67
2023-03-05T22:56:14.297Z,21.23
2023-03-05T22:58:41.192Z,25.13
2023-03-05T23:01:17.919Z,26.95
2023-03-05T23:03:44.701Z,25.30
2023-03-05T23:06:11.667Z,27.83
2023-03-05T23:08:38.438Z,27.10
2023-03-05T23:11:09.909Z,30.70
2023-03-05T23:13:36.699Z,25.85
2023-03-05T23:16:03.763Z,30.02
2023-03-05T23:18:30.741Z,23.38
2023-03-05T23:20:57.464Z,26.50
2023-03-05T23:23:24.378Z,26.25
2023-03-05T23:25:51.913Z,29.48
2023-03-05T23:28:19.977Z,26.73
2023-03-05T23:30:46.709Z,28.77
2023-03-05T23:33:18.034Z,26.30
2023-03-05T23:35:58.863Z,26.50
2023-03-05T23:38:26.853Z,29.27
2023-03-05T23:40:55.392Z,25.48
2023-03-05T23:43:24.758Z,26.73
2023-03-05T23:45:55.076Z,26.38
2023-03-05T23:48:23.344Z,22.23
2023-03-05T23:50:50.398Z,23.60
2023-03-05T23:53:22.631Z,26.50
2023-03-05T23:55:50.311Z,28.17
2023-03-05T23:58:19.127Z,23.42
